Race Results for
Suisun Harbor Criterium
Suisun City, CA
(Event Information)
View By:
Criterium on 08/15/2010

Note: Ranking points are NOT upgrade points. An explanation of ranking points can be found here.


Men - Cat1/2/3 - Master - 35-99

 Place Points NameCity, StateTime USAC #BibTeam
1151.62Dean LaBerge   Napa, CA00:00.0 67041  678 Team Specialized Racing
2155.51Judd Van Sickle   Sacramento, CA00:00.0 127052  694 Rocknasium
3159.41Christopher Baumann   Sacramento, CA00:00.0 53271  638 Unattached
4163.30Jan Weissenberger   San Francisco, CA00:00.0 186678  695 SAFEWAY/Bicycles Plus/PureRed
5167.19Mauricio Prado   Las Vegas, NV00:00.0 28603  661 Allegiant Airlines/Pain MD's.c
6171.08Chris Wire   Saratoga, CA00:00.0 152176  699 SJBC
7174.97Dana Williams   Mill Valley, CA00:00.0 295988  698 Fusion Sport USA
8178.86Matt Connolly   Sacramento, CA00:00.0 302694  665 Rio Strada Racing
9182.75Mark Andersen   San Francisco, CA00:00.0 290814  662 Third Pillar
10186.65Nathan Parks   Livermore, CA00:00.0 51773  684 Morgan Stanley Smith Barney/Sp
11190.54Dennis King   Arroyo Grande, CA00:00.0 51230  646 Central Coast Tire CCT
12194.43Scott Fonseca   Fair Oaks, CA00:00.0 204715  674 Zenn Racing Team
13198.32Keith DeFiebre   Prunedale, CA00:00.0 9046  672 California Giant Cycling
14202.21Edward Goulet   Felton, CA00:00.0 48541  676 
15206.10Rob Cady   Elk Grove, CA00:00.0 49774  637 Zenn Racing Team
16210.00Chris Tanner   Saratoga, CA00:00.0 226929  645 Los Gatos Bicycle Racing Club
17213.89Andre Tenthorey   Granite Bay, CA00:00.0 76561  623 Shriners Quick Step
18217.78Dennis Hopp   San Jose, CA00:00.0 54895  664 SJBC
19221.67Charles Pockell-Wilson   Martinez Ca00:00.0 52696  639 HDR Racing p/b Lombardi Sports
20225.56Joe Molinari   Redwood City, CA00:00.0 24723  681 Form Fitness
21229.45Jeffery Edwards   Tracy, CA00:00.0 255271  643 Barry Lasko DDS Race Team
22233.34Chris Carscadden   Walnut Creek, CA00:00.0 165751  660 HDR Racing p/b Lombardi Sports
23237.24Ryan Wong   San Jose, CA00:00.0 42770  663 Form Fitness
24241.13David Acri   San Francisco00:00.0 233803  668 Squadra Ovest Cycling
25245.02Alex Holtz   Sacramento, CA00:00.0 61440  649 Morgan Stanley Smith Barney/Sp
26248.91Stephen Pelaez   San Francisco, CA00:00.0 64481  685 MRBerkeley.com p/b Bell Lap
27252.80James Hardy   Oakland, CA00:00.0 80116  677 Kaiser Permanente/ Team Oaklan
28256.69Jason Boynton   Yuba City, CA00:00.0 4526  629 Rocknasium
29260.58John Trefethen   Danville, CA00:00.0 212376  655 HDR Racing p/b Lombardi Sports
30264.48Dave Kause (1 - Cat2)   Sacramento, CA00:00.0 175157  636 Unattached
31268.37David Del Rosso   Dublin, CA00:00.0 187432  673 HDR p/b Lombardi Sports
32272.26Chris Black   San Luis Obispo, CA00:00.0 3814  667 Morgan Stanley Smith Barney/Sp
33276.15Raffi Jilizian   Danville, CA00:00.0 187667  642 Form Fitness
34280.04Chris Ott   San Jose, CA00:00.0 26920  683 Zenn Racing Team
35283.93Matthew Ream   Verdi, NV00:00.0 211441  687 Kinetic Cycles / GBI
36287.83Steve Showler   Carmichael, CA00:00.0 32554  647 FCI Commercial Capital
37291.72Nick Theobald   Burlingame, CA00:00.0 35297  693 SAFEWAY/Bicycles Plus/PureRed
38295.61Jess Raphael   Napa, CA00:00.0 221460  686 SAFEWAY/Bicycles Plus/PureRed
39299.50David Anderson   Encinitas , CA00:00.0 1608  669 Morgan Stanley Smith Barney /S
40303.39Ian Swinson   Oakland, CA00:00.0 255539  666 Kaiser Permanente/ Team Oaklan
41307.28Toby Long   Oakland, CA00:00.0 262539  633 Kaiser Permanente/ Team Oaklan
42311.17Victor Mirzayan   Fresno, CA00:00.0 262853  630 Sierra Pacific Racing
43315.07Dirk Himley   San Jose, CA00:00.0 86797  631 Echelon Gran Fondo/Zteam
44318.96Sassan Golafshan   Palo Alto, CA00:00.0 169945  644 Form Fitness
45322.85Jason Snovel   Sacramento, CA00:00.0 268577  641 Rocknasium
46326.74Bubba Melcher   Reno, NV00:00.0 23961  658 Team Clover
47330.63Andres Gil   Stockton, CA00:00.0 171882  634 Williams Cycling
48334.52Jonathan Eropkin   Fresno, CA00:00.0 197844  635 SAFEWAY/Bicycles Plus/PureRed
49338.41John Foster   Mountain View, CA00:00.0 43445  675 Form Fitness
50342.31Christopher Baker   Sacramento, CA00:00.0 47424  670 Morgan Stanley-Smith Barney/Sp
51346.20Pablo Serna   Redwood City, CA00:00.0 48826  690 Form Fitness
DNSJason Brown   Lodi, CA00:00.0 53115  671 Kinetic Cycles/GBI
DNSJohn Licatesi   Davis, CA00:00.0 183265  679 Davis Bike Club
DNSJonathan Sek   San Jose, CA00:00.0 45922  689 SJBC
DNSJason Williams   Chico, CA00:00.0 190700  697 Wells Fargo Racing Team
DNPTrevor White   Oakland, CA00:00.0 503  696 Hybrid Energy Products Cycling
DNPMurat Ozgur   Los Altos, CA00:00.0 41335  626 Squadra Ovest Cycling
DNPPhilip Roberts   Oakland, CA00:00.0 30110  640 Kaiser Permanente/ Team Oaklan
DNPGregory Anderson   Vacaville, CA00:00.0 90802  648 Morgan Stanley Smith Barney/Sp
DNPPaul Mircik   Los Altos, CA00:00.0 126621  680 Form Fitness
DNPRobert Napieralski   Springville, CA00:00.0 271499  682 Yokohl Ranch/Sierra Bicycle We
DNPBoris Rozenberg   Daly City, CA00:00.0 190311  688 
DNPDuane Strawser   Nevada City, CA00:00.0 34392  691 SERT/Sho-Air
DNPDan Tedford   Mountain View, CA00:00.0 196695  692 Squadra Ovest Cycling

Men - Cat 4

 Place Points NameCity, StateTime USAC #BibTeam
1386.82Kirk Evans   Sacramento, CA00:00.0 259534  377 Ikon Cycles Race Team
2391.88Rob Robinson   Castro Valley, CA00:00.0 271386  395 Taleo Racing
3396.94Benjamin Barry   Arcata, CA00:00.0 289212  370 Team Becher+
4402.00Eric Clauss   San Francisco, CA00:00.0 198040  374 Squadra Ovest Cycling
5407.06Steve Wilson   San Anselmo, CA00:00.0 107719  360 Village Peddler
6412.12Jack Maddux   Fresno00:00.0 296879  355 Team Specialized Racing Junior
7417.18Scott Moore   Santa Cruz, CA00:00.0 256976  390 JRVS/Casey Auto
8422.24Jeffrey Palileo   American Canyon, CA00:00.0 224717  356 Squadra Ovest Cycling
9427.29Vincent Juarez   San Jose, CA00:00.0 286414  365 SJBC
10432.35James Whitney   Lincoln, CA00:00.0 51073  399 Fusion Sport
11437.41Ricardo Moran   Oakland, CA00:00.0 307900  391 
12442.47Justin Leopold   Independence, MO00:00.0 299868  359 Unattached
13447.53Burl Pershall   San Anselmo, CA00:00.0 276353  394 Village Peddler
14452.59Allen Brumm   Foster City, CA00:00.0 195431  367 Webcor/Alto Velo
15UNKNOWN RIDER   00:00.0  354 -------
16462.71Travis Dubose   Houston00:00.0 285589  376 Webcor/Alto Velo
17467.77Erik Camacho   San Jose, CA00:00.0 303224  372 Team Fremont/FFBC powered by C
18472.83Adam Lucero   Santa Cruz, CA00:00.0 257679  387 Squadra Ovest Cycling
19477.89Raoul MartinBlouin   Walnut Creek, CA00:00.0 303631  389 Taleo Racing
20482.95Daniel Firu   Sanjose, CA00:00.0 303974  378 SJBC
21UNKNOWN RIDER   00:00.0  368 -------
22493.07AdamVanMinh Martin   Antioch, CA00:00.0 57185  388 Tri Valley Velo
23498.13Oscar Nunez   Menlo Park, CA00:00.0 220085  393 Berkeley Bicycle Club
24503.18Alexander Fuentes   Fairfield, CA00:00.0 219016  379 Luzvimin Racing
25508.24Richard Asturias   Pleasanton, CA00:00.0 236210  369 Tri Valley Velo
26513.30Jack Arney   Lincoln, CA00:00.0 301427  358 Folsom Bike
DNSTimothy Bisson   San Jose, CA00:00.0 221552  371 Berkeley Bike Club (BBC)
DNSRyan Drobek   Sacramento, CA00:00.0 289249  375 Team Becher+
DNSJason Hardi   Citrus Heights, CA00:00.0 287921  381 Vapor Racing
DNSKen Hill   Woodland, CA00:00.0 274292  382 Davis Bike Club
DNSkevin leong   Oakland, CA00:00.0 303230  385 
DNSTimothy Mualchin   Vacaville, CA00:00.0 197634  392 NA
DNSPeter Rumble   Santa Rosa, CA00:00.0 242773  396 EchelonCycles.com
DNSAndreas Schulten   Cameron Park, CA00:00.0 248096  397 Bicycle Planet
DNSSean Tompkins   Morganhill, CA00:00.0 300546  398 SJBC
DNPKalman Zeiger   San Francisco, CA00:00.0 237651  363 Godspeed Courier
DNPEric Chi   Cupertino, CA00:00.0 223566  373 
DNPDavid Green   Berkeley, CA00:00.0 61932  380 
DNPJon Keyzer   Fort Collins, CO00:00.0 298334  383 Chico Corsa
DNPDaniel Lee   Petaluma, CA00:00.0 113898  384 windsor bicycle center
DNPAnthony Lopipero   Pleasant Hill, CA00:00.0 305627  386 Taleo Racing

Men - Cat 4 - Master - 35-99

 Place Points NameCity, StateTime USAC #BibTeam
1356.56Jeff Watson   Elk Grove, CA00:00.0 293136  966 Team Bicycles Plus/Sierra Neva
2363.91John Fallon   Denver, CO00:00.0 278385  967 Wells Fargo Racing Team
3371.27Rick Graves   San Rafael, CA00:00.0 100365  978 Taleo Racing
4378.62J Clifford   Roseville, CA00:00.0 232661  968 Taleo Racing
5385.98Steven Woo   Los Altos, CA00:00.0 38840  998 Third Pillar
6393.33steven zodikoff   Concord, CA00:00.0 286841  999 Taleo Racing
7400.69James Whitney   Lincoln, CA00:00.0 51073  997 Fusion Sport
8408.04Andreas Schulten   Cameron Park, CA00:00.0 248096  994 Bicycle Planet
9415.40Eric Clauss   San Francisco, CA00:00.0 198040  975 Squadra Ovest Cycling
10422.75Jason Neu   Los Gatos, CA00:00.0 305688  989 SJBC
11430.11Dwayne Halterman   Napa, CA00:00.0 175758  980 Eagle Cycling Club
12437.46Morgan Mahanke   El Dorado Hills, CA00:00.0 226577  985 Team Bicycles Plus/Sierra Neva
13444.82Richard Asturias   Pleasanton, CA00:00.0 236210  972 Tri Valley Velo
14452.17Matt Jordan   Santa Cruz, CA00:00.0 245591  982 Hybrid Energy Products
15459.53Daniel Parkinson   Fairfield, CA00:00.0 304775  990 Eagle Racing Team
16466.88AdamVanMinh Martin   Antioch, CA00:00.0 57185  987 Tri Valley Velo
17474.24Gordon Richardson   Sacramento, CA00:00.0 198509  991 
18481.59Emilio Alvarez   Rutherford, CA00:00.0 306712  970 Eagle Racing Team
19488.95Michael Saba   Oakland, CA00:00.0 285459  993 Taleo Racing
20496.30Romeo Uriarte   Orinda, CA00:00.0 262503  996 Berkeley Bicycle Club (BBC)
21503.66Steve Ball   Napa, CA00:00.0 59338  973 Eagle Racing Team
22511.01Mike Reed   Menlo Park, CA00:00.0 273849  969 Webcor
23518.37Erik Camacho   San Jose, CA00:00.0 303224  974 Team Fremont/FFBC powered by C
24525.72Alon Golan   Sunnyvale, CA00:00.0 205510  976 
25533.08Jack Arney   Lincoln, CA00:00.0 301427  971 Folsom Bike
26540.43Rob Robinson   Castro Valley, CA00:00.0 271386  992 Taleo Racing
DNSKen Hill   Woodland, CA00:00.0 274292  981 Davis Bike Club
DNSLaurence Knott   Larkspur, CA00:00.0 19485  983 Olympic Club
DNSMichael Kopp   San Francisco, CA00:00.0 286893  984 Taleo Racing
DNSTerri MAHANNAH   00:00.0  986 
DNSScott Morrison   Fairfield, CA00:00.0 234970  988 Grass Roots Racing p/b Vinny T
DNSSean Tompkins   Morganhill, CA00:00.0 300546  995 SJBC
DNPJames Good   Oakland, CA00:00.0 254097  977 Taleo Racing
DNPDavid Green   Berkeley, CA00:00.0 61932  979 

Men - Cat 3

 Place Points NameCity, StateTime USAC #BibTeam
1250.50Martin Acosta   East Palo Alto, CA00:00.0 291277  594 Alto Velo Racing Club
2257.02Matt Connolly   Sacramento, CA00:00.0 302694  590 Rio Strada Racing
3263.55Andre Tenthorey   Granite Bay, CA00:00.0 76561  576 Shriners Quick Step
4270.08Murat Ozgur   Los Altos, CA00:00.0 41335  557 Squadra Ovest Cycling
5276.60Ian Swinson   Oakland, CA00:00.0 255539  593 Kaiser Permanente/ Team Oaklan
6283.13Matthew Valencia   Los Altos, CA00:00.0 255576  599 Team Specialized Racing Junior
7289.66scott heather   Chico, CA00:00.0 306577  565 Chico Corsa
8296.18Daniel Wesp   Lincoln, CA00:00.0 164223  578 Unattached
9302.71Byron Anson   West Sacramento, CA00:00.0 304735  558 Davis Bike Club
10309.24Joseph Ison   San Francisco, CA00:00.0 302419  588 Unattached
11Nabil SUMOUN   00:00.0  591 
12322.29Givargis Betoshana   Ripon, CA00:00.0 55276  589 Fun Sport Bikes Cycling Team
13328.82Bryan Pro   Davis, CA00:00.0 195430  570 Team Mason Thomas p/b Ket Mo R
14335.34Spence Peterson   Mill Valley, CA00:00.0 235691  582 Above Category Racing
15341.87Kenny Strickland   San Ramon, CA00:00.0 270965  597 SJBC
16348.40Todd Stone   Carmichael, CA00:00.0 249318  592 Rio Strada Racing
17354.92Bernhard Stonas   Hayward, CA00:00.0 67169  587 Berkeley Bicycle Club (BBC)
18361.45Alvaro Mosquera   Sacramento, CA00:00.0 236809  563 Team Bicycle Plus/Sierra Nevad
19367.98Jason Smith   Kensington, CA00:00.0 53119  577 Dolce Vita Cycling
20374.50Patrick Thomas   Aptos, CA00:00.0 294849  571 
21381.03Santiago Bolon   San Jose, CA00:00.0 195384  564 Christian Cycling - Hammer Nut
22387.56Lee Millon   Winters, CA00:00.0 254073  572 Davis Bike Club Race Team
23394.08Victor Mirzayan   Fresno, CA00:00.0 262853  586 Sierra Pacific Racing
24400.61Robert Napieralski   Springville, CA00:00.0 271499  561 Yokohl Ranch/Sierra Bicycle We
25407.14David Doll   Merced, CA00:00.0 281768  579 Stanislaus/Merlock Velo
26413.66Nick Kinney   Windsor, CA00:00.0 255460  568 Colavita Racing-Norcal
27420.19Geoffrey Davis   San Luis Obispo, CA00:00.0 205688  559 ArtsCyclery.com/Wild Horse Win
28426.72Stephen Goth   San Francisco, CA00:00.0 67452  580 Olympic Club
29433.24Eric Zumwalt   Santa Rosa, CA00:00.0 53375  596 Kovarus/ABTA
30439.77Dan Tedford   Mountain View, CA00:00.0 196695  569 Squadra Ovest Cycling
31446.30Lloyd Ranola   Oakland, CA00:00.0 198425  583 Squadra Ovest Cycling
32452.82Benjamin Stern   Mequon, WI00:00.0 238365  585 Team Roaring Mouse
33459.35Cody Tapley   Citrus Heights, CA00:00.0 234610  598 Davis Bike Club Race Team
34465.88Jason James   Oakland, CA00:00.0 119309  567 Squadra Ovest Cycling
DNPBenjamin Dodge   San Jose, CA00:00.0 178595  560 Sugar CRM
DNPSamuel Wilson   Palo Alto, CA00:00.0 248077  562 Metromint Cycling
DNPChris LaBerge   Napa, CA00:00.0 229950  566 Team Specialized Racing Junior
DNPAlex Howard   Mill Valley, CA00:00.0 273094  581 Above Category Racing
DNPJames Ryan   San Jose, CA00:00.0 163902  584 Los Gatos
DNPTroy Newton   Santa Rosa, CA00:00.0 190533  595 Kovarus/ABTA

Men - Pro/Cat 1/2

 Place Points NameCity, StateTime USAC #BibTeam
1131.06Collin Samaan (1 - Cat1)   Fair Oaks, CA00:00.0 196233  498 Kingsnorth International Wheel
2133.67Ryan Parnes (2 - Cat1)   Stockton, CA00:00.0 220414  412 Yahoo Cycling Team
3136.27Rand Miller (3 - Cat1)   San Francisco, CA00:00.0 182990  429 Webcor/Alto Velo
4138.88Ariel Herrmann   San Francisco, CA00:00.0 163046  420 Metromint Cycling
5141.49Tyler Dibble   Oakland, CA00:00.0 205861  411 Yahoo Cycling Team
6144.10Kevin Klein   Menlo Park, CA00:00.0 47388  472 Yahoo! Cycling Team
7146.70Dean LaBerge (4 - Cat1)   Napa, CA00:00.0 67041  474 Team Specialized Racing
8149.31Sterling Magnell (5 - Cat1)   Santa Rosa, CA00:00.0 120588  433 Unattached
9151.92Jan Weissenberger   San Francisco, CA00:00.0 186678  406 SAFEWAY/Bicycles Plus/PureRed
10154.53Kris Lunning   San Rafael, CA00:00.0 121729  426 Above Category Racing
11157.13Gabe Varela   Coeur D' Alene, ID00:00.0 249909  444 ACQUA AL 2/SDBC
12159.74Dana Williams   Mill Valley, CA00:00.0 295988  493 Fusion Sport USA
13162.35Brandon Trafton   Sacramento, CA00:00.0 240033  488 California Giant Berry Farms/S
14164.96Ethan Atkins   San Francisco, CA00:00.0 224998  460 Metromint Cycling
15167.56James LaBerge   Napa, CA00:00.0 221376  473 Team Specialized Racing Junior
16170.17Daniel Farinha   San Jose, CA00:00.0 240558  434 SJBC
17172.78Lucas Binder   San Diego, CA00:00.0 262024  461 Cal Cycling
18175.39Andrew Kennedy   Martinez, CA00:00.0 257276  471 Hybrid Energy Products Cycling
19177.99Christopher Baumann   Sacramento, CA00:00.0 53271  403 Etna
20180.60Nicholas Oliver   El Dorado Hills, CA00:00.0 271541  437 Wells Fargo Racing Team
21UNKNOWN RIDER   00:00.0  454 -------
22185.82Charlie Schneider   Petaluma, CA00:00.0 245542  485 Team NorCal Bike Sport
23188.42Michael Jacques   Portola Valley, CA00:00.0 72022  441 TEAM CLIF BAR Cycling
24191.03Chris Stastny   Vacaville, CA00:00.0 249743  487 California Giant Berry Farms/S
25193.64Peter Nicholson   Mill Valley00:00.0 219558  477 Whole Athlete/ NorCal Bike Spo
26196.24Nathan Freed   Tahoe City, CA00:00.0 86484  466 Team Clif Bar
27198.85Tyler Wertenbruch   Los Osos, CA00:00.0 155433  497 SLO Nexus-Gym One
28201.46Ryan Ramos   Berkeley, CA00:00.0 139348  450 IAS/RH Villa/Montano Velo
29204.07Alexander Blease (1 - Cat2)   Chico, CA00:00.0 195515  448 Chico Corsa Cycling Team
30206.67Nathan Parks   Livermore, CA00:00.0 51773  479 Morgan Stanley Smith Barney/S
31209.28AJ Snovel (2 - Cat2)   Sacramento, CA00:00.0 272559  451 Davis Bike Club Race Team
32211.89Sean Rhea (6 - Cat1)   San Francisco, CA00:00.0 178535  483 Metromint Cycling
33214.50Neil Bartley   San Jose, CA00:00.0 209268  435 Berkeley Bicycle Club (BBC)
34217.10Carmi Schulman   Seattle, WA00:00.0 200292  486 Squadra Ovest Cycling
35219.71Brian Bosch   Fresno, CA00:00.0 40703  462 Yahoo! Cycling Team
36222.32Edward Goulet   Felton, CA00:00.0 48541  453 Unattached
37224.93Brian Johnston   San Francisco, CA00:00.0 237599  421 Squadra Ovest Cycling
38227.53Garrett Peck   Lafayette, CA00:00.0 213553  452 Davis Bike Club
39230.14Judd Van Sickle   Sacramento, CA00:00.0 127052  489 Rocknasium
40232.75Colby Elliot   San Diego , CA00:00.0 203446  445 Bike Religion
41235.36Gregory Pattison (7 - Cat1)   Boise, ID00:00.0 36983  480 One Fast Finisher
42237.96donald hahn   Reno, NV00:00.0 280149  422 Unattached
43240.57Mark Deterline   Salt Lake City, UT00:00.0 43613  465 Wells Fargo Racing Team
44243.18Christopher McGovern   Nevada City, CA00:00.0 23487  476 Hybrid EP Cycling
45245.79David Pouncy   Piedmont, CA00:00.0 248071  430 Berkeley Bicycle Club (BBC)
46248.39Sean Smith   Oakland, CA00:00.0 204018  496 Squadra Ovest Cycling
47251.00John Bergmann   Albany, CA00:00.0 187522  442 TEAM CLIF BAR Cycling
48253.61Robert Newman   Los Gatos, CA00:00.0 53327  414 Williams Cycling
49256.21David McCook   Tampa Fl00:00.0 66627  439 Unattached
50258.82Josh Rennie   Reno, NV00:00.0 251736  419 TEAM CLIF BAR Cycling
51261.43John Wilk   Oakland, CA00:00.0 199951  492 Yahoo! Cycling Team
52264.04Joel Robertson   San Leandro, CA00:00.0 220316  423 Webcor/Alto Velo
53266.64Uthman Ray IV (8 - Cat1)   Oakland, CA00:00.0 146803  425 IAS/RH Villa/Montano Velo
54269.25Dirk Himley   San Jose, CA00:00.0 86797  470 
55271.86Chris Black   San Luis Obispo, CA00:00.0 3814  499 Morgan Stanley Smith Barney/Sp
56274.47Dirk Copeland   Santa Clara, CA00:00.0 52843  464 Yahoo! Cycling Team
57277.07Paul Sumner   San Anselmo, CA00:00.0 47616  432 Divine Electric Norcal
58279.68Stephen Pelaez   San Francisco, CA00:00.0 64481  481 MRBerkeley.com p/b Bell Lap
59282.29David Benkoski   Menlo Park, CA00:00.0 271685  447 Team Specialized Racing
60284.90Mauricio Prado   Las Vegas, NV00:00.0 28603  456 Allegiant Airlines/Pain MD's.c
61287.50Vincent Owens   Fresno, CA00:00.0 242560  478 Yahoo! Cycling Team
62290.11Russell White   Lafayette, CA00:00.0 236024  490 Davis Bike Club
63292.72Jonathan Eropkin   Fresno, CA00:00.0 197844  446 SAFEWAY/Bicycles Plus/PureRed
64295.33Gregory White   Lafayette, CA00:00.0 246669  491 Davis Bike Club
65297.93Tim Granshaw (9 - Cat1)   Redwood City, CA00:00.0 55803  416 Sierra Pacific Racing
66300.54Joseph Binder   San Diego, CA00:00.0 272181  418 Echelon Gran Fondo/Zteam
67303.15Adam Ross   Folsom, CA00:00.0 167796  484 Wells Fargo Racing Team
68305.75James Hardy   Oakland, CA00:00.0 80116  468 Kaiser Permanente/ Team Oaklan
69308.36Sean McBride   Oakland, CA00:00.0 190591  495 ALA Cycling p/b Lombardi Sport
DNScoulton hartrich   Juno Beach, FL00:00.0 286536  469 
DNSRobert MacNeill   San Carlos, CA00:00.0 199599  475 Webcor/Alto Velo
DNPJeffery Edwards   Tracy, CA00:00.0 255271  400 Barry Lasko DDS Race Team
DNPJoe Iannarelli   Vacaville, CA00:00.0 195783  409 TEAM CLIF BAR Cycling
DNPSergei Badeka   Palo Alto, CA00:00.0 118797  410 Third Pillar
DNPHendrik Pohl   San Francisco, CA00:00.0 207753  415 Fusion Sport USA
DNPElliot Jaramillo   Burlingame, CA00:00.0 179930  417 IAS/RH Villa/Montano Velo
DNPMax Haines-Stiles (Cat2)   Palo Alto, CA00:00.0 238508  424 Metromint Cycling
DNPRobert Evans   Scotts Valley, CA00:00.0 72893  427 Unattached
DNPDarin Divine   Mill Valley, CA00:00.0 97504  431 Divine Electric Norcal
DNPNole Studley   Oakland, CA00:00.0 251301  436 Team Roaring Mouse
DNPAaron Gallardo   Woodland Hills Ca00:00.0 160366  438 Team Helen's
DNPToby Long   Oakland, CA00:00.0 262539  440 Kaiser Permanente/ Team Oaklan
DNPAndres Gil   Stockton, CA00:00.0 171882  443 Williams Cycling
DNPTrevor White   Oakland, CA00:00.0 503  449 CalNorte VC Switchbacks
DNPPatrick Briggs   Oakland, CA00:00.0 4838  463 Yahoo! Cycling Team
DNPSassan Golafshan   Palo Alto, CA00:00.0 169945  467 Form Fitness
DNPSamuel Pickman   San Jose, CA00:00.0 133433  482 California Giant Berry Farms/S
DNPNick Theobald   Burlingame, CA00:00.0 35297  500 SAFEWAY/Bicycles Plus/PureRed
DNPJan Weissenberger   San Francisco, CA00:00.0 186678  501 SAFEWAY/Bicycles Plus/PureRed

Women - Cat1/2/3

 Place Points NameCity, StateTime USAC #BibTeam
1167.50Mary Elizabeth Maroon   Sacramento, CA00:00.0 219555  857 Touchstone Climbing
2174.53Jane Robertson   Davis, CA00:00.0 218607  874 Metromint Cycling
3181.55Megan Melack   Santa Cruz, CA00:00.0 302381  858 
4188.58Christine Riker   San Francisco, CA00:00.0 290240  863 Dolce Vita Cycling
5195.60Jane Despas   Menlo Park, CA00:00.0 105201  849 Yahoo Cycling Team
6202.63Emily Kachorek   Sacramento, CA00:00.0 167636  870 Wells Fargo Racing Team
7209.65Karla Kingsley   Kensington, CA00:00.0 219191  872 Third Pillar
8216.68Michelle Melka   Baltimore, MD00:00.0 302454  859 Dolce Vita Cycling
9223.70Sarah Maile   Sacramento, CA00:00.0 163025  869 
10230.73Kate Ligler   Sausalito, CA00:00.0 206217  856 Dolce Vita Cycling
11237.75Patricia Black   San Luis Obispo, CA00:00.0 72039  846 Morgan Stanley Cycling Team
12244.78Josephine Morgan   Oakland, CA00:00.0 242553  860 Los Gatos
13251.80Tammy Wildgoose   Temecula00:00.0 272022  878 Paramount Racing
14258.83Starla Teddergreen (1 - Cat2)   Portland, OR00:00.0 202033  879 Vanderkitten Racing
15265.85Emily Matheu   Oakland, CA00:00.0 277109  881 Third Pillar
16272.88Mary Ellen Ash   Menlo Park, CA00:00.0 254874  853 Los Gatos
17279.90Emily Weinert   Atlanta, GA00:00.0 282470  866 Team TIBCO II
18286.93Anne Fulton   Palo Alto, CA00:00.0 275624  847 Los Gatos Bicycle Racing Club
19293.95Kimberly White   Grand Junction, CO00:00.0 209678  867 Dolce Vita Cycling
20300.98Elis Bradshaw   Oakland, CA00:00.0 208125  854 Touchstone Climbing
21308.00Ryan Hostetter   San Luis Obispo, CA00:00.0 191767  875 Metromint Cycling
22315.03Heather Nielson   Seattle, WA00:00.0 237346  861 Touchstone Climbing
23322.05Carol Irving   Woodland, CA00:00.0 17419  868 Touchstone Climbing
DNSBobbiJo Price   Winner Sd00:00.0 296075  862 Team TIBCO II
DNSSamantha Taylor (Cat2)   San Francisco, CA00:00.0 235763  865 Los Gatos
DNPCarmen Elliott   San Jose, CA00:00.0 106103  848 OHANA Sport/Ducati
DNPAnn Kodani   Mountain View, CA00:00.0 143018  855 Team Tibco II
DNPKerry Stivaletti   Los Gatos, CA00:00.0 239419  864 OHANA Sport/Ducati
DNPLucia Mokres   Redwood City, CA00:00.0 262113  871 Los Gatos
DNPKelly Bartholomew   San Rafael, CA00:00.0 48431  873 Los Gatos
DNPEmily Thurston   San Pablo, CA00:00.0 128351  876 Team Vegan
DNPHanan Alves-Hyde   Albany, CA00:00.0 234966  880 Proman Hit Squad
DNPSarah KERLIN   00:00.0  877 Velo Bella
DNFRebecca Rising   Yosemite, CA00:00.0 197841  882 Sierra Pacific Racing

Report missing or incorrect license numbers

Volkswagen
Bonk BreakerUSACDFSpyShimanoSierra Nevada
UCI USA Cycling is the official governing body for all disciplines of competitive cycling in the United States. The 501c3, membership-based organization aims both to achieve sustained success in international cycling competition and to grow competitive cycling in America while delivering an exceptional customer experience.
View Children's Online Privacy Protection Policy
US Olympic Committee